Pippa Passes, Kentucky
Current Conditions -  °F | °C
As of 12:55 AM on Saturday 29 Nov 2014 (Local Time) from KPBX Reporting Station
Clear Clear  
Wind Chill: 27°   Ceiling: Unl
Heat Index: 34°   Visibility: 10mi
Dew Point: 17°   Wind: 9mph
Humidity: 50%   Direction: 130°SE
Pressure: 30.11"   Gusts: NA
Location:  37.33°N, 82.87°W
Report Text: KPBX 290555Z AUTO 13008KT 10SM CLR 01/M08 A3011 RMK AO2 T00111082 10012 21005
Loading
Personal Weather Stations






























Interactive Weather Map New forecast layout! Learn more

10-Day Weather Forecast

Advertisements
Track Severe Weather on mobile